createdAt,value
2023-04-18T00:01:38.723Z,75.38
2023-04-18T00:04:13.646Z,75.34
2023-04-18T00:06:46.296Z,75.86
2023-04-18T00:09:18.106Z,75.71
2023-04-18T00:11:51.075Z,75.43
2023-04-18T00:14:23.110Z,75.39
2023-04-18T00:16:54.886Z,74.99
2023-04-18T00:19:26.719Z,75.52
2023-04-18T00:21:59.842Z,75.50
2023-04-18T00:24:31.768Z,75.28
2023-04-18T00:27:05.061Z,75.22
2023-04-18T00:29:36.940Z,75.27
2023-04-18T00:32:09.005Z,75.44
2023-04-18T00:34:40.948Z,75.31
2023-04-18T00:37:12.616Z,76.24
2023-04-18T00:39:44.450Z,76.90
2023-04-18T00:42:17.630Z,77.60
2023-04-18T00:44:49.723Z,77.83
2023-04-18T00:47:21.602Z,77.54
2023-04-18T00:49:53.897Z,77.51
2023-04-18T00:52:28.411Z,77.82
2023-04-18T00:55:00.429Z,78.04
2023-04-18T00:57:33.856Z,77.99
2023-04-18T01:00:10.015Z,77.68
2023-04-18T01:02:43.935Z,77.76
2023-04-18T01:05:15.923Z,77.90
2023-04-18T01:07:48.382Z,77.43
2023-04-18T01:10:20.845Z,77.64
2023-04-18T01:13:11.093Z,77.54
2023-04-18T01:15:45.100Z,77.88
2023-04-18T01:18:18.978Z,77.92
2023-04-18T01:20:54.567Z,77.76
2023-04-18T01:23:26.623Z,77.54
2023-04-18T01:25:59.832Z,77.92
2023-04-18T01:28:31.751Z,78.12
2023-04-18T01:31:03.615Z,77.51
2023-04-18T01:33:35.433Z,77.82
2023-04-18T01:36:07.451Z,77.99
2023-04-18T01:38:39.275Z,78.77
2023-04-18T01:41:12.456Z,78.51
2023-04-18T01:43:44.245Z,78.85
2023-04-18T01:46:16.750Z,79.31
2023-04-18T01:48:48.573Z,79.45
2023-04-18T01:51:20.436Z,80.36
2023-04-18T01:53:52.225Z,80.91
2023-04-18T01:56:25.379Z,82.28
2023-04-18T01:58:57.322Z,82.89
2023-04-18T02:01:29.167Z,83.25
2023-04-18T02:04:01.147Z,84.27
2023-04-18T02:06:34.190Z,83.79
2023-04-18T02:09:07.422Z,84.36
2023-04-18T02:11:40.344Z,84.58
2023-04-18T02:14:12.356Z,84.17
2023-04-18T02:16:44.211Z,85.31
2023-04-18T02:19:16.051Z,84.45
2023-04-18T02:21:47.891Z,85.12
2023-04-18T02:24:19.735Z,84.95
2023-04-18T02:26:53.810Z,85.01
2023-04-18T02:29:25.749Z,85.94
2023-04-18T02:31:58.247Z,85.95
2023-04-18T02:34:29.959Z,85.77
2023-04-18T02:37:01.910Z,85.37
2023-04-18T02:39:33.686Z,86.06
2023-04-18T02:42:06.894Z,86.27
2023-04-18T02:44:38.821Z,85.70
2023-04-18T02:47:10.848Z,85.67
2023-04-18T02:49:42.602Z,85.69
2023-04-18T02:52:14.474Z,85.83
2023-04-18T02:54:46.367Z,86.05
2023-04-18T02:57:19.388Z,86.68
2023-04-18T02:59:51.162Z,86.46
2023-04-18T03:02:23.261Z,86.38
2023-04-18T03:04:56.254Z,86.12
2023-04-18T03:07:27.896Z,85.85
2023-04-18T03:09:59.876Z,85.92
2023-04-18T03:12:32.796Z,85.85
2023-04-18T03:15:04.838Z,86.45
2023-04-18T03:17:37.136Z,86.49
2023-04-18T03:20:12.158Z,86.21
2023-04-18T03:22:43.698Z,86.42
2023-04-18T03:25:15.574Z,86.25
2023-04-18T03:27:48.638Z,86.05
2023-04-18T03:30:21.220Z,85.50
2023-04-18T03:32:53.761Z,85.33
2023-04-18T03:35:25.381Z,85.18
2023-04-18T03:37:57.419Z,85.72
2023-04-18T03:40:28.971Z,85.92
2023-04-18T03:43:01.885Z,86.18
2023-04-18T03:45:33.785Z,85.90
2023-04-18T03:48:06.275Z,85.89
2023-04-18T03:50:38.131Z,85.75
2023-04-18T03:53:09.985Z,86.04
2023-04-18T03:55:42.324Z,85.80
2023-04-18T03:58:16.164Z,85.63
2023-04-18T04:00:47.747Z,85.37
2023-04-18T04:03:19.856Z,85.58
2023-04-18T04:05:51.909Z,85.39
2023-04-18T04:08:23.752Z,85.19
2023-04-18T04:10:55.556Z,85.22
2023-04-18T04:13:28.520Z,84.65
2023-04-18T04:16:00.546Z,85.34
2023-04-18T04:18:32.175Z,84.99
2023-04-18T04:21:04.050Z,85.41
2023-04-18T04:23:35.968Z,85.61
2023-04-18T04:26:08.218Z,84.73
2023-04-18T04:28:41.257Z,85.18
2023-04-18T04:31:13.169Z,84.87
2023-04-18T04:33:44.941Z,85.32
2023-04-18T04:36:23.001Z,84.89
2023-04-18T04:38:55.028Z,84.83
2023-04-18T04:41:27.763Z,85.07
2023-04-18T04:44:01.784Z,84.84
2023-04-18T04:46:34.506Z,84.81
2023-04-18T04:49:06.415Z,84.25
2023-04-18T04:51:38.386Z,84.58
2023-04-18T04:54:11.060Z,84.62
2023-04-18T04:56:42.985Z,84.75
2023-04-18T04:59:16.319Z,84.50
2023-04-18T05:01:48.128Z,84.78
2023-04-18T05:04:20.265Z,84.38
2023-04-18T05:06:52.372Z,84.50
2023-04-18T05:09:24.235Z,84.21
2023-04-18T05:11:56.106Z,84.20
2023-04-18T05:14:29.148Z,84.11
2023-04-18T05:17:01.151Z,84.26
2023-04-18T05:19:32.932Z,84.04
2023-04-18T05:22:04.706Z,84.26
2023-04-18T05:24:36.543Z,84.23
2023-04-18T05:27:08.479Z,84.00
2023-04-18T05:29:41.593Z,83.75
2023-04-18T05:32:13.422Z,83.85
2023-04-18T05:34:45.256Z,83.75
2023-04-18T05:37:17.369Z,83.80
2023-04-18T05:39:49.167Z,83.22
2023-04-18T05:42:20.935Z,83.31
2023-04-18T05:44:54.152Z,83.28
2023-04-18T05:47:28.424Z,83.35
2023-04-18T05:50:00.460Z,83.39
2023-04-18T05:52:32.843Z,83.40
2023-04-18T05:55:04.755Z,83.29
2023-04-18T05:57:36.636Z,83.31
2023-04-18T06:00:12.936Z,83.20
2023-04-18T06:02:45.117Z,82.89
2023-04-18T06:05:17.648Z,82.86
2023-04-18T06:07:49.648Z,82.83
2023-04-18T06:10:21.554Z,82.55
2023-04-18T06:12:53.453Z,82.96
2023-04-18T06:15:26.635Z,83.10
2023-04-18T06:17:58.614Z,82.83
2023-04-18T06:20:30.478Z,82.98
2023-04-18T06:23:02.194Z,83.04
2023-04-18T06:25:34.062Z,83.03
2023-04-18T06:28:05.960Z,82.71
2023-04-18T06:30:39.198Z,82.61
2023-04-18T06:33:11.333Z,82.24
2023-04-18T06:35:43.499Z,82.83
2023-04-18T06:38:15.943Z,82.30
2023-04-18T06:40:47.910Z,82.61
2023-04-18T06:43:19.687Z,82.07
2023-04-18T06:45:52.756Z,82.16
2023-04-18T06:48:24.644Z,82.17
2023-04-18T06:50:56.571Z,82.13
2023-04-18T06:53:28.476Z,82.00
2023-04-18T06:56:00.391Z,82.11
2023-04-18T06:58:32.271Z,82.17
2023-04-18T07:01:06.153Z,81.68
2023-04-18T07:03:37.940Z,81.52
2023-04-18T07:06:11.587Z,81.16
2023-04-18T07:08:43.450Z,81.29
2023-04-18T07:11:18.483Z,81.14
2023-04-18T07:13:50.485Z,81.19
2023-04-18T07:16:23.436Z,81.09
2023-04-18T07:18:55.249Z,81.54
2023-04-18T07:21:27.370Z,81.12
2023-04-18T07:23:59.012Z,81.08
2023-04-18T07:26:30.868Z,80.91
2023-04-18T07:29:02.786Z,80.63
2023-04-18T07:31:36.098Z,80.75
2023-04-18T07:34:08.970Z,80.77
2023-04-18T07:36:41.902Z,80.77
2023-04-18T07:39:13.781Z,80.67
2023-04-18T07:41:45.799Z,80.59
2023-04-18T07:44:18.214Z,80.17
2023-04-18T07:46:51.144Z,79.95
2023-04-18T07:49:23.014Z,80.03
2023-04-18T07:51:54.824Z,79.84
2023-04-18T07:54:26.765Z,79.47
2023-04-18T07:56:59.049Z,79.41
2023-04-18T07:59:32.133Z,79.40
2023-04-18T08:02:05.236Z,78.71
2023-04-18T08:04:37.063Z,78.94
2023-04-18T08:07:08.704Z,78.54
2023-04-18T08:09:40.548Z,77.96
2023-04-18T08:12:12.342Z,78.12
2023-04-18T08:14:44.157Z,78.09
2023-04-18T08:17:17.122Z,78.40
2023-04-18T08:19:48.951Z,78.48
2023-04-18T08:22:20.951Z,78.68
2023-04-18T08:27:28.959Z,78.30
2023-04-18T08:30:01.712Z,77.82
2023-04-18T08:32:36.685Z,76.20
2023-04-18T08:35:09.366Z,77.05
2023-04-18T08:37:41.176Z,76.81
2023-04-18T08:40:14.141Z,76.56
2023-04-18T08:42:48.857Z,74.42
2023-04-18T08:45:24.175Z,74.89
2023-04-18T08:48:01.285Z,75.82
2023-04-18T08:50:34.652Z,73.86
2023-04-18T08:53:08.022Z,73.96
2023-04-18T08:55:40.489Z,74.05
2023-04-18T08:58:12.412Z,75.07
2023-04-18T09:00:53.031Z,74.49
2023-04-18T09:03:41.525Z,74.85
2023-04-18T09:06:20.216Z,73.61
2023-04-18T09:09:03.899Z,73.38
2023-04-18T09:11:36.103Z,72.96
2023-04-18T09:14:08.018Z,73.79
2023-04-18T09:16:50.485Z,73.10
2023-04-18T09:19:23.752Z,72.52
2023-04-18T09:22:04.503Z,72.95
2023-04-18T09:24:37.119Z,72.73
2023-04-18T09:27:14.895Z,72.54
2023-04-18T09:29:50.314Z,71.00
2023-04-18T09:32:29.628Z,70.53
2023-04-18T09:35:05.420Z,71.25
2023-04-18T09:37:39.146Z,69.64
2023-04-18T09:40:21.617Z,69.96
2023-04-18T09:42:56.509Z,70.30
2023-04-18T09:45:29.851Z,70.60
2023-04-18T09:48:01.762Z,69.54
2023-04-18T09:50:37.855Z,70.57
2023-04-18T09:53:13.280Z,67.64
2023-04-18T09:55:47.245Z,69.65
2023-04-18T09:58:22.294Z,69.09
2023-04-18T10:00:57.304Z,67.95
2023-04-18T10:03:42.334Z,67.40
2023-04-18T10:06:17.836Z,67.28
2023-04-18T10:08:52.745Z,68.61
2023-04-18T10:11:25.085Z,67.07
2023-04-18T10:14:03.563Z,68.38
2023-04-18T10:16:36.255Z,67.07
2023-04-18T10:19:26.828Z,65.91
2023-04-18T10:22:02.761Z,67.45
2023-04-18T10:24:57.056Z,65.32
2023-04-18T10:28:01.217Z,65.67
2023-04-18T10:31:03.479Z,65.04
2023-04-18T10:33:40.942Z,67.04
2023-04-18T10:36:21.686Z,66.62
2023-04-18T10:39:00.652Z,64.75
2023-04-18T10:41:35.585Z,64.75
2023-04-18T10:44:24.230Z,63.74
2023-04-18T10:47:32.717Z,64.40
2023-04-18T10:50:07.070Z,63.36
2023-04-18T10:52:39.402Z,62.01
2023-04-18T10:55:32.713Z,62.18
2023-04-18T10:58:06.283Z,62.24
2023-04-18T11:00:38.124Z,63.65
2023-04-18T11:03:10.572Z,61.91
2023-04-18T11:05:42.456Z,61.62
2023-04-18T11:08:28.616Z,60.78
2023-04-18T11:11:09.401Z,62.03
2023-04-18T11:13:55.385Z,62.13
2023-04-18T11:16:34.877Z,60.45
2023-04-18T11:19:19.118Z,60.64
2023-04-18T11:21:51.678Z,60.92
2023-04-18T11:24:27.344Z,60.26
2023-04-18T11:27:00.678Z,60.75
2023-04-18T11:29:32.312Z,60.34
2023-04-18T11:32:06.601Z,60.40
2023-04-18T11:34:38.617Z,59.95
2023-04-18T11:37:11.394Z,59.75
2023-04-18T11:39:46.525Z,59.46
2023-04-18T11:42:19.837Z,57.94
2023-04-18T11:44:51.704Z,59.73
2023-04-18T11:47:31.618Z,61.42
2023-04-18T11:50:06.946Z,57.17
2023-04-18T11:52:41.442Z,58.67
2023-04-18T11:55:22.053Z,58.27
2023-04-18T11:57:59.644Z,57.97
2023-04-18T12:00:38.461Z,59.26
2023-04-18T12:03:18.832Z,57.98
2023-04-18T12:05:59.002Z,56.08
2023-04-18T12:08:32.224Z,56.88
2023-04-18T12:11:03.797Z,56.66
2023-04-18T12:13:38.101Z,55.36
2023-04-18T12:16:11.330Z,54.86
2023-04-18T12:18:42.982Z,54.32
2023-04-18T12:21:17.052Z,56.07
2023-04-18T12:23:48.702Z,55.29
2023-04-18T12:26:22.790Z,55.05
2023-04-18T12:28:56.885Z,54.36
2023-04-18T12:31:28.858Z,54.05
2023-04-18T12:34:00.538Z,58.01
2023-04-18T12:36:32.435Z,56.06
2023-04-18T12:39:04.461Z,53.77
2023-04-18T12:41:36.112Z,52.97
2023-04-18T12:44:09.764Z,54.93
2023-04-18T12:46:41.673Z,54.39
2023-04-18T12:49:13.699Z,53.68
2023-04-18T12:51:45.545Z,56.03
2023-04-18T12:54:17.380Z,56.00
2023-04-18T12:56:50.187Z,54.83
2023-04-18T12:59:23.317Z,52.53
2023-04-18T13:01:55.210Z,54.39
2023-04-18T13:04:27.145Z,53.30
2023-04-18T13:06:59.179Z,52.40
2023-04-18T13:09:31.546Z,55.21
2023-04-18T13:12:03.518Z,53.86
2023-04-18T13:14:36.446Z,52.83
2023-04-18T13:17:08.677Z,53.07
2023-04-18T13:19:41.467Z,53.69
2023-04-18T13:22:13.300Z,53.60
2023-04-18T13:24:45.145Z,53.48
2023-04-18T13:27:17.126Z,53.20
2023-04-18T13:29:50.167Z,54.27
2023-04-18T13:32:22.202Z,54.56
2023-04-18T13:34:56.065Z,53.13
2023-04-18T13:37:28.224Z,53.49
2023-04-18T13:40:00.238Z,52.06
2023-04-18T13:42:32.114Z,52.61
2023-04-18T13:45:05.188Z,53.15
2023-04-18T13:47:37.498Z,52.77
2023-04-18T13:50:11.752Z,51.12
2023-04-18T13:52:43.526Z,51.22
2023-04-18T13:55:16.083Z,51.54
2023-04-18T13:57:47.735Z,51.86
2023-04-18T14:00:23.413Z,50.93
2023-04-18T14:02:57.509Z,50.00
2023-04-18T14:05:30.531Z,50.49
2023-04-18T14:08:03.935Z,49.35
2023-04-18T14:10:36.109Z,49.58
2023-04-18T14:13:07.976Z,51.33
2023-04-18T14:15:41.286Z,50.47
2023-04-18T14:18:13.176Z,50.39
2023-04-18T14:20:45.036Z,49.93
2023-04-18T14:23:16.963Z,48.83
2023-04-18T14:25:48.771Z,49.82
2023-04-18T14:28:24.765Z,49.81
2023-04-18T14:31:01.933Z,49.65
2023-04-18T14:33:34.946Z,48.12
2023-04-18T14:36:09.283Z,50.65
2023-04-18T14:38:41.626Z,49.60
2023-04-18T14:41:13.544Z,52.39
2023-04-18T14:43:45.401Z,48.86
2023-04-18T14:46:18.858Z,49.32
2023-04-18T14:48:50.914Z,48.94
2023-04-18T14:51:22.768Z,48.24
2023-04-18T14:53:55.472Z,48.31
2023-04-18T14:56:27.202Z,49.86
2023-04-18T14:58:59.023Z,49.69
2023-04-18T15:01:32.407Z,50.93
2023-04-18T15:04:04.458Z,48.97
2023-04-18T15:06:36.937Z,49.85
2023-04-18T15:09:08.620Z,50.25
2023-04-18T15:11:40.540Z,51.06
2023-04-18T15:14:14.113Z,50.44
2023-04-18T15:16:49.823Z,50.48
2023-04-18T15:19:21.775Z,50.56
2023-04-18T15:21:54.160Z,51.23
2023-04-18T15:24:26.331Z,50.20
2023-04-18T15:26:58.733Z,49.76
2023-04-18T15:29:30.570Z,51.60
2023-04-18T15:32:05.090Z,50.77
2023-04-18T15:34:37.099Z,52.23
2023-04-18T15:37:09.304Z,52.79
2023-04-18T15:39:40.930Z,53.33
2023-04-18T15:42:12.881Z,53.10
2023-04-18T15:44:44.515Z,53.63
2023-04-18T15:47:17.656Z,53.70
2023-04-18T15:49:50.578Z,53.98
2023-04-18T15:52:22.419Z,54.89
2023-04-18T15:54:55.369Z,55.29
2023-04-18T15:57:29.272Z,54.79
2023-04-18T16:00:01.206Z,55.15
2023-04-18T16:02:34.234Z,53.84
2023-04-18T16:05:05.962Z,54.35
2023-04-18T16:07:38.118Z,53.30
2023-04-18T16:10:11.153Z,53.41
2023-04-18T16:12:43.208Z,54.17
2023-04-18T16:15:15.600Z,53.49
2023-04-18T16:17:49.366Z,52.94
2023-04-18T16:20:21.223Z,54.18
2023-04-18T16:22:53.079Z,54.14
2023-04-18T16:25:24.836Z,54.93
2023-04-18T16:27:56.689Z,56.09
2023-04-18T16:30:28.498Z,56.15
2023-04-18T16:33:01.693Z,55.99
2023-04-18T16:35:33.633Z,57.11
2023-04-18T16:38:05.362Z,56.53
2023-04-18T16:40:36.965Z,56.85
2023-04-18T16:43:08.815Z,56.97
2023-04-18T16:45:40.847Z,57.23
2023-04-18T16:48:13.790Z,57.52
2023-04-18T16:50:45.713Z,58.09
2023-04-18T16:53:17.676Z,58.06
2023-04-18T16:55:50.327Z,58.62
2023-04-18T16:58:23.163Z,58.13
2023-04-18T17:00:54.753Z,58.62
2023-04-18T17:03:27.928Z,58.66
2023-04-18T17:06:00.794Z,58.67
2023-04-18T17:08:33.658Z,58.85
2023-04-18T17:11:05.507Z,58.55
2023-04-18T17:13:36.527Z,58.47
2023-04-18T17:16:09.541Z,59.21
2023-04-18T17:18:42.730Z,58.66
2023-04-18T17:21:14.501Z,58.87
2023-04-18T17:23:47.389Z,58.71
2023-04-18T17:26:19.367Z,59.17
2023-04-18T17:28:51.286Z,59.57
2023-04-18T17:31:23.315Z,59.31
2023-04-18T17:33:56.376Z,59.66
2023-04-18T17:36:29.761Z,59.85
2023-04-18T17:39:06.158Z,59.41
2023-04-18T17:41:41.763Z,60.05
2023-04-18T17:44:13.682Z,60.26
2023-04-18T17:46:46.770Z,60.16
2023-04-18T17:49:20.501Z,59.94
2023-04-18T17:51:52.364Z,60.54
2023-04-18T17:54:24.204Z,59.82
2023-04-18T17:56:57.754Z,60.00
2023-04-18T17:59:37.422Z,60.75
2023-04-18T18:02:11.640Z,61.40
2023-04-18T18:04:44.865Z,60.92
2023-04-18T18:07:16.638Z,61.64
2023-04-18T18:09:48.656Z,61.43
2023-04-18T18:12:20.473Z,61.25
2023-04-18T18:14:52.354Z,61.74
2023-04-18T18:17:24.357Z,62.40
2023-04-18T18:19:57.485Z,62.10
2023-04-18T18:22:29.162Z,62.31
2023-04-18T18:25:00.838Z,62.20
2023-04-18T18:27:32.700Z,62.96
2023-04-18T18:30:06.624Z,63.32
2023-04-18T18:32:38.462Z,63.07
2023-04-18T18:35:12.927Z,63.29
2023-04-18T18:37:46.216Z,63.72
2023-04-18T18:40:18.020Z,63.28
2023-04-18T18:42:51.360Z,63.76
2023-04-18T18:45:24.931Z,63.71
2023-04-18T18:47:56.868Z,63.17
2023-04-18T18:50:29.855Z,63.90
2023-04-18T18:53:02.374Z,64.69
2023-04-18T18:55:34.843Z,63.91
2023-04-18T18:58:08.209Z,63.34
2023-04-18T19:00:41.498Z,63.48
2023-04-18T19:03:18.325Z,62.97
2023-04-18T19:05:51.582Z,63.29
2023-04-18T19:08:24.971Z,62.76
2023-04-18T19:10:56.883Z,63.50
2023-04-18T19:13:28.750Z,63.07
2023-04-18T19:16:00.745Z,61.91
2023-04-18T19:18:32.728Z,61.78
2023-04-18T19:21:05.723Z,62.70
2023-04-18T19:23:37.632Z,62.01
2023-04-18T19:26:09.545Z,61.43
2023-04-18T19:28:41.911Z,61.67
2023-04-18T19:31:13.829Z,61.17
2023-04-18T19:33:45.942Z,61.54
2023-04-18T19:36:19.021Z,61.22
2023-04-18T19:38:50.745Z,61.14
2023-04-18T19:41:22.650Z,60.91
2023-04-18T19:43:54.484Z,61.90
2023-04-18T19:46:27.905Z,61.57
2023-04-18T19:48:59.569Z,61.99
2023-04-18T19:51:32.679Z,61.77
2023-04-18T19:54:04.620Z,61.50
2023-04-18T19:56:36.530Z,61.46
2023-04-18T19:59:08.383Z,61.47
2023-04-18T20:01:40.393Z,60.95
2023-04-18T20:04:14.291Z,61.22
2023-04-18T20:06:47.605Z,61.42
2023-04-18T20:09:19.783Z,60.77
2023-04-18T20:11:54.202Z,60.69
2023-04-18T20:14:26.191Z,61.61
2023-04-18T20:16:57.842Z,62.18
2023-04-18T20:19:29.934Z,61.37
2023-04-18T20:22:03.719Z,61.11
2023-04-18T20:24:35.578Z,61.10
2023-04-18T20:27:07.418Z,61.25
2023-04-18T20:29:39.379Z,62.14
2023-04-18T20:32:12.341Z,61.74
2023-04-18T20:34:44.131Z,61.29
2023-04-18T20:37:19.748Z,61.55
2023-04-18T20:39:52.779Z,62.15
2023-04-18T20:42:24.760Z,61.44
2023-04-18T20:44:58.739Z,62.04
2023-04-18T20:47:30.394Z,61.13
2023-04-18T20:50:02.287Z,60.50
2023-04-18T20:52:35.463Z,61.22
2023-04-18T20:55:07.385Z,61.39
2023-04-18T20:57:39.330Z,61.55
2023-04-18T21:00:14.265Z,61.56
2023-04-18T21:02:46.522Z,61.40
2023-04-18T21:05:18.233Z,61.91
2023-04-18T21:07:51.389Z,61.58
2023-04-18T21:10:23.108Z,62.38
2023-04-18T21:12:54.974Z,62.47
2023-04-18T21:15:26.877Z,62.88
2023-04-18T21:17:58.774Z,63.72
2023-04-18T21:20:30.635Z,63.40
2023-04-18T21:23:03.678Z,63.34
2023-04-18T21:25:35.516Z,63.71
2023-04-18T21:28:07.888Z,63.74
2023-04-18T21:30:39.779Z,63.45
2023-04-18T21:33:11.842Z,63.16
2023-04-18T21:35:43.488Z,61.10
2023-04-18T21:38:16.662Z,59.35
2023-04-18T21:40:48.925Z,60.24
2023-04-18T21:43:20.638Z,60.20
2023-04-18T21:45:52.532Z,60.16
2023-04-18T21:48:24.435Z,57.40
2023-04-18T21:50:59.198Z,57.20
2023-04-18T21:53:32.437Z,56.04
2023-04-18T21:56:05.460Z,56.00
2023-04-18T21:58:37.419Z,54.46
2023-04-18T22:01:09.331Z,54.23
2023-04-18T22:03:41.645Z,54.18
2023-04-18T22:06:13.410Z,55.09
2023-04-18T22:08:46.575Z,54.37
2023-04-18T22:11:18.954Z,54.78
2023-04-18T22:13:54.193Z,56.23
2023-04-18T22:16:28.691Z,57.30
2023-04-18T22:19:01.072Z,57.95
2023-04-18T22:21:32.974Z,58.93
2023-04-18T22:24:06.024Z,58.52
2023-04-18T22:26:37.892Z,57.02
2023-04-18T22:29:09.857Z,57.06
2023-04-18T22:31:43.049Z,56.61
2023-04-18T22:34:14.931Z,55.92
2023-04-18T22:36:46.894Z,55.75
2023-04-18T22:39:20.292Z,56.01
2023-04-18T22:41:52.100Z,56.03
2023-04-18T22:44:23.945Z,56.15
2023-04-18T22:46:55.902Z,56.40
2023-04-18T22:49:27.558Z,56.77
2023-04-18T22:51:59.598Z,57.23
2023-04-18T22:54:32.572Z,57.34
2023-04-18T22:57:04.467Z,55.96
2023-04-18T22:59:36.415Z,53.71
2023-04-18T23:02:08.347Z,52.19
2023-04-18T23:04:42.159Z,51.09
2023-04-18T23:07:14.323Z,50.92
2023-04-18T23:09:47.380Z,52.44
2023-04-18T23:12:19.214Z,52.54
2023-04-18T23:14:51.105Z,51.89
2023-04-18T23:17:23.008Z,52.37
2023-04-18T23:19:54.860Z,52.23
2023-04-18T23:22:26.713Z,51.69
2023-04-18T23:25:00.175Z,53.08
2023-04-18T23:27:32.053Z,49.43
2023-04-18T23:30:03.994Z,49.21
2023-04-18T23:32:35.864Z,46.44
2023-04-18T23:35:07.820Z,48.34
2023-04-18T23:37:40.118Z,46.77
2023-04-18T23:40:14.491Z,47.75
2023-04-18T23:42:47.096Z,47.48
2023-04-18T23:45:20.634Z,48.62
2023-04-18T23:47:52.479Z,47.47
2023-04-18T23:50:24.569Z,46.85
2023-04-18T23:52:56.385Z,46.62
2023-04-18T23:55:29.738Z,45.67
2023-04-18T23:58:01.730Z,45.14
